メインページ
METAR-TAF:

METAR-TAF

空港 :

コペンハーゲン空港

コペンハーゲン, デンマーク

緯度: 55-37N, 経度: 012-39E, 海抜: 5m

現時点の気象観測

当レポートは29分前の10:50(UTC)に作成
西/南西の風 7kt
気温 11°C
湿度 87%
気圧 1026 hPa
視程10km以上
高度4200ftの千切れ雲あり

METAR: EKCH 141050Z 24007KT 9999 BKN042 11/09 Q1026 NOSIG

時間: 12:19 (11:19 UTC)

予報

当レポートは6時間19分前の05:00(UTC)に作成
予報は14日の 06時(UTC)から 15日の 06時(UTC)まで有効
西の風 8kt
視程10km以上
高度4000ftの千切れ雲あり
14日の 06時(UTC)から 14日の 09時(UTC)まで一時的に
高度1200ftの千切れ雲あり
14日の 16時(UTC)から 15日の 06時(UTC)まで一時的に
視程: 4000m
高度800ftの千切れ雲あり

TAF: EKCH 140500Z 1406/1506 27008KT 9999 BKN040 TEMPO 1406/1409 BKN012 TEMPO 1416/1506 4000 BR BKN008

4,000以上の空港の気象観測と天気予報(METAR報とTAF報)

利用可能な観測所は地図上に黄色い丸と赤い丸で示す。

丸の上にカーソルを重ねると観測所名を参照できる。

次にクリックすると気象観測と天気予報を参照できる。

マップの切り替え:黒色「×」印の緑ボタンをクリックして拡大、「-」印の緑ボタンをクリックして縮小、緑色の三角印をクリックして隣りの地図に切り替え


METAR-TAF: